Terminal Aerodrome Forecast
Issued by NWS

Home | Current Version | Previous Version | Text Only | Print | Product List | Glossary On
Versions: 1 2 3 4 5 6 7 8 9 10 11 12 13 14 15 16 17 18 19 20
000
FTUS41 KCAR 202328
TAFHUL
TAF
KHUL 202328Z 2100/2124 00000KT P6SM OVC020
     FM211200 VRB03KT P6SM VCSH OVC028
     FM212200 31004KT P6SM BKN020=

USA.gov is the U.S. government's official web portal to all federal, state and local government web resources and services.